Latest Weather Observations for Penrith

IDN60901

Issued at 5:41 am EST Saturday 30 July 2016 (issued every 10 minutes, with the page automatically refreshed every 10 minutes)

About weather observations | Map of Sydney area stations | Latest observations for Sydney area | Other Formats
Station Details ID: 067113 Name: PENRITH LAKES AWS Lat: -33.72 Lon: 150.68 Height: 24.7 m
Data from the previous 72 hours. | See also: Recent months at Penrith
Date/Time
EST
Temp
°C
App
Temp
°C
Dew
Point
°C
Rel
Hum
%
Delta-T
°C
Wind Press
QNH
hPa
Press
MSL
hPa
Rain since
9am
mm
Dir  Spd
km/h
Gust
km/h
Spd
kts
Gust
kts
30/05:30am 3.9 2.5 3.6 98 0.1 CALM 0 0 0 0 - - 0.0
30/05:00am 4.0 2.2 3.7 98 0.1 NNW 2 2 1 1 - - 0.0
30/04:30am 4.5 3.2 4.2 98 0.1 CALM 0 2 0 1 - - 0.0
30/04:00am 4.4 2.7 4.1 98 0.1 WSW 2 4 1 2 - - 0.0
30/03:30am 4.8 3.6 4.5 98 0.1 CALM 0 2 0 1 - - 0.0
30/03:00am 4.8 3.6 4.5 98 0.1 CALM 0 0 0 0 - - 0.0
30/02:30am 4.9 3.7 4.5 97 0.2 CALM 0 0 0 0 - - 0.0
30/02:00am 5.0 3.8 4.6 97 0.2 CALM 0 0 0 0 - - 0.0
30/01:30am 5.0 3.0 4.6 97 0.2 WSW 4 4 2 2 - - 0.0
30/01:00am 5.3 3.0 4.9 97 0.2 S 6 7 3 4 - - 0.0
30/12:30am 5.9 4.3 4.7 92 0.5 N 2 4 1 2 - - 0.0
30/12:00am 6.3 4.0 4.9 91 0.6 N 6 6 3 3 - - 0.0
 
Date/Time
EST
Temp
°C
App
Temp
°C
Dew
Point
°C
Rel
Hum
%
Delta-T
°C
Wind Press
QNH
hPa
Press
MSL
hPa
Rain since
9am
mm
Dir  Spd
km/h
Gust
km/h
Spd
kts
Gust
kts
29/11:30pm 6.5 5.0 5.0 90 0.7 NW 2 4 1 2 - - 0.0
29/11:00pm 7.1 6.1 5.4 89 0.8 CALM 0 0 0 0 - - 0.0
29/10:30pm 7.2 5.9 4.3 82 1.3 CALM 0 2 0 1 - - 0.0
29/10:00pm 7.7 6.1 4.5 80 1.4 NE 2 7 1 4 - - 0.0
29/09:30pm 8.0 5.6 4.2 77 1.7 WSW 6 9 3 5 - - 0.0
29/09:00pm 8.1 5.6 4.5 78 1.6 WSW 7 9 4 5 - - 0.0
29/08:30pm 9.6 8.1 4.8 72 2.1 SSE 2 6 1 3 - - 0.0
29/08:00pm 10.6 8.5 3.9 63 3.0 NW 4 6 2 3 - - 0.0
29/07:30pm 11.9 9.6 2.9 54 3.9 WSW 4 7 2 4 - - 0.0
29/07:00pm 12.7 9.5 2.8 51 4.4 W 9 15 5 8 - - 0.0
29/06:30pm 12.3 9.8 5.0 61 3.4 WNW 7 11 4 6 - - 0.0
29/06:00pm 13.4 10.0 3.8 52 4.3 SSW 11 13 6 7 - - 0.0
29/05:30pm 13.7 10.2 5.3 57 3.9 SW 13 15 7 8 - - 0.0
29/05:00pm 13.9 12.1 7.0 63 3.4 WSW 6 9 3 5 - - 0.0
29/04:30pm 17.0 16.3 7.1 52 4.9 CALM 0 0 0 0 - - 0.0
29/04:00pm 17.6 16.2 7.1 50 5.3 NW 4 6 2 3 - - 0.0
29/03:30pm 17.1 14.9 6.0 48 5.4 NNW 7 7 4 4 - - 0.0
29/03:00pm 17.4 15.3 6.0 47 5.6 NW 6 7 3 4 - - 0.0
29/02:30pm 16.4 13.4 4.1 44 5.7 NNW 9 9 5 5 - - 0.0
29/02:00pm 16.5 14.1 4.2 44 5.8 NW 6 7 3 4 - - 0.0
29/01:30pm 15.5 12.9 4.3 47 5.2 NNW 7 9 4 5 - - 0.0
29/01:00pm 15.3 13.2 4.1 47 5.2 SW 4 6 2 3 - - 0.0
29/12:30pm 14.0 11.5 4.0 51 4.6 NW 6 7 3 4 - - 0.0
29/12:00pm 13.7 11.8 4.8 55 4.1 S 4 6 2 3 - - 0.0
29/11:30am 12.5 10.5 4.5 58 3.6 WSW 4 7 2 4 - - 0.0
29/11:00am 11.7 9.8 4.7 62 3.2 NW 4 6 2 3 - - 0.0
29/10:30am 10.0 8.1 5.0 71 2.3 NW 4 6 2 3 - - 0.0
29/10:00am 8.9 6.9 4.5 74 1.9 NNW 4 6 2 3 - - 0.0
29/09:30am 7.3 4.9 4.3 81 1.3 N 6 7 3 4 - - 0.0
29/09:00am 7.2 6.2 5.5 89 0.8 CALM 0 0 0 0 - - 0.0
29/08:30am 4.8 2.8 4.5 98 0.1 NNW 4 6 2 3 - - 0.0
29/08:00am 4.5 3.2 4.1 97 0.2 CALM 0 0 0 0 - - 0.0
29/07:30am 3.5 2.0 3.2 98 0.1 CALM 0 2 0 1 - - 0.0
29/07:00am 2.6 1.0 2.3 98 0.1 CALM 0 4 0 2 - - 0.0
29/06:30am 2.8 0.8 2.5 98 0.1 S 2 4 1 2 - - 0.0
29/06:00am 2.8 0.8 2.5 98 0.1 E 2 2 1 1 - - 0.0
29/05:30am 2.9 1.0 2.6 98 0.1 E 2 4 1 2 - - 0.0
29/05:00am 3.2 0.9 2.9 98 0.1 S 4 4 2 2 - - 0.0
29/04:30am 3.8 2.0 3.5 98 0.1 S 2 4 1 2 - - 0.0
29/04:00am 3.9 2.5 3.6 98 0.1 CALM 0 2 0 1 - - 0.0
29/03:30am 4.0 1.9 3.7 98 0.1 SSE 4 4 2 2 - - 0.0
29/03:00am 4.2 2.5 3.8 97 0.2 SSE 2 4 1 2 - - 0.0
29/02:30am 4.3 2.2 3.9 97 0.2 S 4 6 2 3 - - 0.0
29/02:00am 5.3 3.7 4.4 94 0.4 WNW 2 4 1 2 - - 0.0
29/01:30am 5.3 3.0 4.7 96 0.3 N 6 7 3 4 - - 0.0
29/01:00am 5.5 2.9 4.3 92 0.5 N 7 9 4 5 - - 0.0
29/12:30am 5.7 4.5 4.8 94 0.4 CALM 0 6 0 3 - - 0.0
29/12:00am 6.0 4.1 4.8 92 0.5 SE 4 6 2 3 - - 0.0
 
Date/Time
EST
Temp
°C
App
Temp
°C
Dew
Point
°C
Rel
Hum
%
Delta-T
°C
Wind Press
QNH
hPa
Press
MSL
hPa
Rain since
9am
mm
Dir  Spd
km/h
Gust
km/h
Spd
kts
Gust
kts
28/11:30pm 6.2 4.9 4.2 87 0.9 CALM 0 2 0 1 - - 0.0
28/11:00pm 6.6 4.5 3.9 83 1.2 SE 4 4 2 2 - - 0.0
28/10:30pm 7.2 5.5 4.0 80 1.4 S 2 4 1 2 - - 0.0
28/10:00pm 8.1 6.0 4.1 76 1.7 SE 4 6 2 3 - - 0.0
28/09:30pm 8.8 6.2 4.0 72 2.1 SW 7 7 4 4 - - 0.0
28/09:00pm 9.0 6.4 3.2 67 2.5 S 6 11 3 6 - - 0.0
28/08:30pm 9.6 7.3 5.0 73 2.1 SSE 6 9 3 5 - - 0.0
28/08:00pm 11.2 8.7 4.0 61 3.2 SSW 6 7 3 4 - - 0.0
28/07:30pm 11.6 9.4 3.6 58 3.5 W 4 7 2 4 - - 0.0
28/07:00pm 12.8 10.6 3.5 53 4.2 NE 4 6 2 3 - - 0.0
28/06:30pm 13.6 11.1 3.9 52 4.4 W 6 9 3 5 - - 0.0
28/06:00pm 13.5 11.0 4.6 55 4.1 SSE 7 11 4 6 - - 0.0
28/05:30pm 14.9 12.4 4.9 51 4.7 SSW 7 13 4 7 - - 0.0
28/05:00pm 16.3 12.7 5.0 47 5.4 W 13 17 7 9 - - 0.0
28/04:30pm 17.6 15.9 7.4 51 5.1 W 6 7 3 4 - - 0.0
28/04:00pm 19.4 18.2 6.5 43 6.5 W 2 4 1 2 - - 0.0
28/03:30pm 19.6 18.2 5.6 40 6.9 ENE 2 6 1 3 - - 0.0
28/03:00pm 19.5 18.2 5.9 41 6.7 NNW 2 6 1 3 - - 0.0
28/02:30pm 19.2 17.9 6.0 42 6.5 N 2 4 1 2 - - 0.0
28/02:00pm 18.4 16.7 5.9 44 6.1 SSW 4 6 2 3 - - 0.0
28/01:30pm 18.2 16.9 5.8 44 6.1 NW 2 6 1 3 - - 0.0
28/01:00pm 17.5 15.8 5.8 46 5.7 NW 4 6 2 3 - - 0.0
28/12:30pm 16.4 14.2 6.0 50 5.0 NNE 7 11 4 6 - - 0.0
28/12:00pm 15.5 13.2 5.7 52 4.7 N 7 13 4 7 - - 0.0
28/11:30am 14.6 12.0 6.2 57 4.0 N 9 13 5 7 - - 0.0
28/11:00am 13.2 10.2 6.1 62 3.4 NNW 11 15 6 8 - - 0.0
28/10:30am 12.5 10.5 6.3 66 2.9 N 6 9 3 5 - - 0.0
28/10:00am 11.4 9.8 6.5 72 2.3 NNW 4 6 2 3 - - 0.0
28/09:30am 10.0 8.4 6.5 79 1.6 N 4 6 2 3 - - 0.0
28/09:00am 8.0 5.9 5.8 86 1.0 N 6 7 3 4 - - 0.0
28/08:30am 7.2 5.8 5.7 90 0.7 NNE 2 6 1 3 - - 0.0
28/08:00am 6.8 6.0 6.4 97 0.2 CALM 0 4 0 2 - - 0.0
28/07:30am 5.2 3.7 4.9 98 0.1 SE 2 4 1 2 - - 0.0
28/07:00am 4.5 2.8 4.2 98 0.1 SW 2 4 1 2 - - 0.0
28/06:30am 4.7 2.7 4.4 98 0.1 SSE 4 4 2 2 - - 0.0
28/06:00am 4.3 1.8 4.0 98 0.1 S 6 7 3 4 - - 0.0
28/05:30am 4.8 2.8 4.5 98 0.1 SSW 4 6 2 3 - - 0.0
28/05:00am 4.3 2.6 4.0 98 0.1 SE 2 7 1 4 - - 0.0
28/04:30am 5.1 3.9 4.8 98 0.1 CALM 0 0 0 0 - - 0.0
28/04:00am 4.9 2.9 4.6 98 0.1 SE 4 7 2 4 - - 0.0
28/03:30am 5.1 3.2 4.8 98 0.1 ESE 4 7 2 4 - - 0.0
28/03:00am 5.4 4.3 5.1 98 0.1 CALM 0 2 0 1 - - 0.0
28/02:30am 5.2 3.3 4.8 97 0.2 NE 4 7 2 4 - - 0.0
28/02:00am 5.6 3.4 5.2 97 0.2 ENE 6 7 3 4 - - 0.0
28/01:30am 6.2 5.2 5.8 97 0.2 CALM 0 0 0 0 - - 0.0
28/01:00am 6.3 5.2 5.1 92 0.5 CALM 0 0 0 0 - - 0.0
28/12:30am 6.4 4.9 4.9 90 0.7 SSW 2 6 1 3 - - 0.0
28/12:00am 6.6 4.8 5.2 91 0.6 SSW 4 6 2 3 - - 0.0
 
Date/Time
EST
Temp
°C
App
Temp
°C
Dew
Point
°C
Rel
Hum
%
Delta-T
°C
Wind Press
QNH
hPa
Press
MSL
hPa
Rain since
9am
mm
Dir  Spd
km/h
Gust
km/h
Spd
kts
Gust
kts
27/11:30pm 7.7 6.9 6.3 91 0.6 CALM 0 2 0 1 - - 0.0
27/11:00pm 7.6 5.3 5.6 87 0.9 NNW 7 9 4 5 - - 0.0
27/10:30pm 8.9 7.5 5.3 78 1.6 NNE 2 4 1 2 - - 0.0
27/10:00pm 9.1 8.1 5.7 79 1.5 CALM 0 0 0 0 - - 0.0
27/09:30pm 9.4 7.6 5.2 75 1.9 WNW 4 9 2 5 - - 0.0
27/09:00pm 11.0 9.3 4.0 62 3.1 SE 2 4 1 2 - - 0.0
27/08:30pm 12.0 10.0 4.2 59 3.5 NNW 4 11 2 6 - - 0.0
27/08:00pm 11.6 9.6 4.3 61 3.3 NNW 4 6 2 3 - - 0.0
27/07:30pm 12.8 10.3 3.7 54 4.1 WNW 6 9 3 5 - - 0.0
27/07:00pm 13.0 10.8 3.4 52 4.3 ESE 4 9 2 5 - - 0.0
27/06:30pm 13.1 10.5 4.3 55 4.0 WNW 7 11 4 6 - - 0.0
27/06:00pm 13.5 10.8 3.8 52 4.4 W 7 13 4 7 - - 0.0
27/05:30pm 14.1 11.1 4.1 51 4.6 WSW 9 19 5 10 - - 0.0
27/05:00pm 15.1 10.5 3.9 47 5.1 WNW 17 24 9 13 - - 0.0
27/04:30pm 16.2 11.6 3.6 43 5.8 W 17 30 9 16 - - 0.0
27/04:00pm 16.8 11.6 3.8 42 6.0 WNW 20 37 11 20 - - 0.0
27/03:30pm 17.2 12.3 4.2 42 6.1 W 19 43 10 23 - - 0.0
27/03:00pm 17.4 13.2 4.0 41 6.3 W 15 28 8 15 - - 0.0
27/02:30pm 17.4 12.6 4.4 42 6.1 W 19 35 10 19 - - 0.0
27/02:00pm 17.3 11.0 3.9 41 6.3 W 26 41 14 22 - - 0.0
27/01:38pm 17.2 10.5 3.5 40 6.4 W 28 46 15 25 - - 0.0
27/01:30pm 17.1 11.1 3.4 40 6.3 W 24 43 13 23 - - 0.0
27/01:11pm 16.9 10.2 3.9 42 6.1 W 28 50 15 27 - - 0.0
27/01:00pm 16.1 10.5 3.2 42 5.9 W 22 39 12 21 - - 0.0
27/12:30pm 17.3 12.0 2.9 38 6.6 WNW 20 35 11 19 - - 0.0
27/12:00pm 17.3 10.8 2.9 38 6.6 WNW 26 46 14 25 - - 0.0
27/11:30am 17.2 10.1 3.8 41 6.3 WNW 30 41 16 22 - - 0.0
27/11:05am 17.0 10.2 3.3 40 6.3 W 28 54 15 29 - - 0.0
27/11:00am 17.0 10.7 3.7 41 6.2 W 26 37 14 20 - - 0.0
27/10:30am 16.3 11.1 5.6 49 5.1 NW 22 39 12 21 - - 0.0
27/10:00am 16.0 10.8 5.3 49 5.1 NW 22 35 12 19 - - 0.0
27/09:39am 16.0 9.2 5.0 48 5.2 WNW 30 61 16 33 - - 0.0
27/09:38am 16.0 9.6 5.0 48 5.2 WNW 28 61 15 33 - - 0.0
27/09:30am 16.2 11.5 5.2 48 5.2 WNW 19 33 10 18 - - 0.0
27/09:00am 15.4 10.8 5.6 52 4.7 NW 19 30 10 16 - - 0.0
27/08:30am 12.1 7.4 6.2 67 2.8 N 20 26 11 14 - - 0.0
27/08:00am 10.9 6.3 5.7 70 2.4 N 19 24 10 13 - - 0.0
27/07:30am 10.0 5.4 5.8 75 1.9 N 19 20 10 11 - - 0.0
27/07:00am 9.3 5.4 5.5 77 1.7 N 15 20 8 11 - - 0.0
27/06:30am 9.3 5.5 5.7 78 1.6 N 15 19 8 10 - - 0.0
27/06:00am 8.6 6.4 5.4 80 1.4 N 6 7 3 4 - - 0.0

Latest Capital City Observations: Canberra | Sydney | Melbourne | Brisbane | Adelaide | Perth | Hobart | Darwin

Other Formats:

Comma delimited format used in spreadsheet applications
http://www.bom.gov.au/fwo/IDN60901/IDN60901.94763.axf

JavaScript Object Notation format (JSON) in row-major order
http://www.bom.gov.au/fwo/IDN60901/IDN60901.94763.json